createdAt,value
2023-05-10T00:02:34.996Z,100496
2023-05-10T00:12:35.752Z,100486
2023-05-10T00:22:36.634Z,100478
2023-05-10T00:32:37.600Z,100481
2023-05-10T00:42:39.850Z,100477
2023-05-10T00:52:39.387Z,100480
2023-05-10T01:02:40.329Z,100476
2023-05-10T01:12:41.133Z,100470
2023-05-10T01:22:41.985Z,100465
2023-05-10T01:32:42.892Z,100467
2023-05-10T01:42:43.725Z,100463
2023-05-10T01:52:44.619Z,100466
2023-05-10T02:02:45.463Z,100458
2023-05-10T02:12:46.387Z,100453
2023-05-10T02:22:47.221Z,100441
2023-05-10T02:42:49.020Z,100443
2023-05-10T02:52:50.002Z,100444
2023-05-10T03:02:50.935Z,100450
2023-05-10T03:12:51.820Z,100445
2023-05-10T03:32:53.648Z,100442
2023-05-10T03:42:54.476Z,100441
2023-05-10T03:52:55.664Z,100452
2023-05-10T04:02:56.634Z,100451
2023-05-10T04:12:57.472Z,100449
2023-05-10T04:22:58.327Z,100442
2023-05-10T04:32:59.245Z,100446
2023-05-10T04:43:00.138Z,100455
2023-05-10T04:53:01.126Z,100447
2023-05-10T05:03:02.208Z,100457
2023-05-10T05:13:03.130Z,100464
2023-05-10T05:23:04.056Z,100465
2023-05-10T05:33:05.326Z,100473
2023-05-10T05:43:06.395Z,100474
2023-05-10T05:53:07.250Z,100479
2023-05-10T06:03:08.486Z,100483
2023-05-10T06:13:09.745Z,100484
2023-05-10T06:23:10.885Z,100491
2023-05-10T06:33:12.151Z,100480
2023-05-10T06:43:14.412Z,100499
2023-05-10T07:03:16.057Z,100495
2023-05-10T07:13:17.711Z,100499
2023-05-10T07:23:18.701Z,100491
2023-05-10T07:33:20.260Z,100494
2023-05-10T07:43:21.723Z,100480
2023-05-10T07:53:22.914Z,100479
2023-05-10T08:03:24.445Z,100481
2023-05-10T08:13:25.909Z,100475
2023-05-10T08:23:27.219Z,100475
2023-05-10T08:33:28.564Z,100472
2023-05-10T08:43:29.876Z,100473
2023-05-10T09:03:32.429Z,100464
2023-05-10T09:13:33.810Z,100478
2023-05-10T09:23:35.164Z,100476
2023-05-10T09:33:36.740Z,100466
2023-05-10T09:43:37.788Z,100463
2023-05-10T09:53:39.101Z,100446
2023-05-10T10:03:40.419Z,100447
2023-05-10T10:13:41.841Z,100438
2023-05-10T10:23:43.354Z,100425
2023-05-10T10:33:46.257Z,100421
2023-05-10T10:43:46.036Z,100416
2023-05-10T10:53:47.564Z,100397
2023-05-10T11:13:51.351Z,100379
2023-05-10T11:23:51.468Z,100376
2023-05-10T11:33:52.662Z,100374
2023-05-10T11:43:54.027Z,100359
2023-05-10T11:53:55.399Z,100341
2023-05-10T12:03:56.979Z,100352
2023-05-10T12:13:58.389Z,100355
2023-05-10T12:23:59.902Z,100346
2023-05-10T12:34:00.986Z,100345
2023-05-10T12:44:02.603Z,100334
2023-05-10T12:54:03.741Z,100326
2023-05-10T13:04:05.096Z,100312
2023-05-10T13:14:06.382Z,100301
2023-05-10T13:24:07.639Z,100286
2023-05-10T13:34:09.001Z,100275
2023-05-10T13:54:13.579Z,100245
2023-05-10T14:04:13.361Z,100244
2023-05-10T14:14:14.938Z,100240
2023-05-10T14:24:16.412Z,100227
2023-05-10T14:34:17.949Z,100230
2023-05-10T14:44:19.733Z,100229
2023-05-10T14:54:20.614Z,100225
2023-05-10T15:04:22.106Z,100230
2023-05-10T15:14:25.201Z,100223
2023-05-10T15:24:24.842Z,100224
2023-05-10T15:34:26.186Z,100220
2023-05-10T15:44:27.565Z,100218
2023-05-10T15:54:29.278Z,100216
2023-05-10T16:04:30.424Z,100215
2023-05-10T16:14:31.900Z,100218
2023-05-10T16:24:33.390Z,100210
2023-05-10T16:34:36.099Z,100218
2023-05-10T16:44:36.447Z,100226
2023-05-10T16:54:37.620Z,100230
2023-05-10T17:04:38.990Z,100246
2023-05-10T17:14:41.963Z,100249
2023-05-10T17:24:41.892Z,100258
2023-05-10T17:34:43.057Z,100261
2023-05-10T17:44:44.374Z,100267
2023-05-10T17:54:45.742Z,100271
2023-05-10T18:04:46.974Z,100277
2023-05-10T18:14:48.080Z,100283
2023-05-10T18:24:51.314Z,100288
2023-05-10T18:34:50.561Z,100297
2023-05-10T18:44:51.856Z,100302
2023-05-10T18:54:53.101Z,100313
2023-05-10T19:04:54.381Z,100318
2023-05-10T19:14:55.696Z,100329
2023-05-10T19:24:56.970Z,100326
2023-05-10T19:34:59.396Z,100324
2023-05-10T19:44:59.192Z,100322
2023-05-10T20:15:02.608Z,100315
2023-05-10T20:25:03.820Z,100324
2023-05-10T20:35:05.247Z,100325
2023-05-10T20:45:08.977Z,100323
2023-05-10T20:55:07.382Z,100327
2023-05-10T21:05:08.575Z,100316
2023-05-10T21:15:09.629Z,100315
2023-05-10T21:45:12.993Z,100318
2023-05-10T21:55:14.037Z,100319
2023-05-10T22:05:15.294Z,100324
2023-05-10T22:15:16.473Z,100324
2023-05-10T22:25:17.374Z,100326
2023-05-10T22:35:18.565Z,100325
2023-05-10T22:45:19.785Z,100335
2023-05-10T22:55:20.964Z,100329
2023-05-10T23:05:21.619Z,100328
2023-05-10T23:15:22.683Z,100339
2023-05-10T23:25:23.912Z,100336
2023-05-10T23:35:24.843Z,100336
2023-05-10T23:45:26.160Z,100342
2023-05-10T23:55:26.934Z,100349
